createdAt,value
2023-05-08T00:02:25.402Z,101644.78
2023-05-08T00:04:53.685Z,101641.31
2023-05-08T00:07:21.946Z,101640.97
2023-05-08T00:09:50.411Z,101640.31
2023-05-08T00:12:18.589Z,101631.59
2023-05-08T00:14:46.831Z,101631.91
2023-05-08T00:17:15.053Z,101625.81
2023-05-08T00:19:43.273Z,101630.44
2023-05-08T00:22:11.623Z,101635.19
2023-05-08T00:24:39.888Z,101631.66
2023-05-08T00:27:09.128Z,101629.84
2023-05-08T00:29:37.473Z,101627.38
2023-05-08T00:32:05.852Z,101630.91
2023-05-08T00:34:34.131Z,101629.31
2023-05-08T00:37:03.767Z,101627.28
2023-05-08T00:39:32.189Z,101630.31
2023-05-08T00:42:00.531Z,101627.91
2023-05-08T00:44:28.787Z,101620.94
2023-05-08T00:46:57.261Z,101620.88
2023-05-08T00:49:26.258Z,101617.53
2023-05-08T00:51:57.441Z,101624.09
2023-05-08T00:54:27.439Z,101618.19
2023-05-08T00:56:56.729Z,101617.53
2023-05-08T00:59:29.902Z,101615.88
2023-05-08T01:01:58.201Z,101617.53
2023-05-08T01:04:27.725Z,101618.16
2023-05-08T01:06:56.048Z,101610.38
2023-05-08T01:09:24.259Z,101626.03
2023-05-08T01:12:35.374Z,101615.66
2023-05-08T01:15:21.943Z,101612.19
2023-05-08T01:18:26.330Z,101606.84
2023-05-08T01:21:06.642Z,101614.19
2023-05-08T01:24:13.429Z,101610.00
2023-05-08T01:26:52.848Z,101612.94
2023-05-08T01:29:54.490Z,101607.53
2023-05-08T01:32:27.330Z,101613.97
2023-05-08T01:35:21.368Z,101616.00
2023-05-08T01:38:07.231Z,101627.09
2023-05-08T01:41:02.567Z,101623.22
2023-05-08T01:43:51.476Z,101619.28
2023-05-08T01:46:26.828Z,101617.66
2023-05-08T01:49:00.834Z,101620.63
2023-05-08T01:51:33.855Z,101621.69
2023-05-08T01:54:09.444Z,101636.06
2023-05-08T01:56:40.392Z,101623.25
2023-05-08T01:59:11.215Z,101636.19
2023-05-08T02:01:41.686Z,101623.41
2023-05-08T02:04:11.334Z,101627.44
2023-05-08T02:06:40.996Z,101628.56
2023-05-08T02:09:11.252Z,101630.44
2023-05-08T02:11:42.907Z,101626.16
2023-05-08T02:14:15.154Z,101635.41
2023-05-08T02:16:44.767Z,101641.94
2023-05-08T02:19:15.569Z,101637.81
2023-05-08T02:21:47.642Z,101636.22
2023-05-08T02:24:17.352Z,101639.22
2023-05-08T02:26:47.482Z,101638.59
2023-05-08T02:29:16.690Z,101630.81
2023-05-08T02:31:46.492Z,101635.31
2023-05-08T02:34:15.234Z,101630.97
2023-05-08T02:36:44.336Z,101639.31
2023-05-08T02:39:15.055Z,101634.38
2023-05-08T02:41:43.448Z,101639.81
2023-05-08T02:44:11.867Z,101639.00
2023-05-08T02:46:55.490Z,101641.72
2023-05-08T02:49:34.545Z,101637.44
2023-05-08T02:52:29.835Z,101636.72
2023-05-08T02:55:01.208Z,101638.63
2023-05-08T02:57:35.536Z,101638.63
2023-05-08T03:00:28.727Z,101638.88
2023-05-08T03:03:25.136Z,101633.75
2023-05-08T03:05:56.998Z,101640.03
2023-05-08T03:08:32.008Z,101635.69
2023-05-08T03:11:19.292Z,101636.69
2023-05-08T03:13:49.350Z,101642.25
2023-05-08T03:16:23.121Z,101645.13
2023-05-08T03:19:00.958Z,101647.88
2023-05-08T03:21:31.707Z,101651.50
2023-05-08T03:24:03.419Z,101656.25
2023-05-08T03:26:32.990Z,101649.41
2023-05-08T03:29:01.581Z,101658.34
2023-05-08T03:31:33.228Z,101663.78
2023-05-08T03:34:02.049Z,101666.44
2023-05-08T03:36:31.506Z,101669.13
2023-05-08T03:39:01.499Z,101676.44
2023-05-08T03:41:30.158Z,101672.91
2023-05-08T03:43:59.827Z,101671.25
2023-05-08T03:46:28.140Z,101685.63
2023-05-08T03:48:56.505Z,101679.44
2023-05-08T03:51:24.861Z,101679.59
2023-05-08T03:53:53.110Z,101682.28
2023-05-08T03:56:22.369Z,101684.97
2023-05-08T03:59:05.854Z,101686.91
2023-05-08T04:01:43.111Z,101690.59
2023-05-08T04:04:37.165Z,101694.25
2023-05-08T04:07:48.603Z,101696.94
2023-05-08T04:10:22.301Z,101695.19
2023-05-08T04:13:13.605Z,101694.44
2023-05-08T04:16:02.162Z,101701.63
2023-05-08T04:18:33.783Z,101705.28
2023-05-08T04:21:04.483Z,101708.03
2023-05-08T04:23:34.519Z,101701.09
2023-05-08T04:26:05.722Z,101706.53
2023-05-08T04:28:35.849Z,101710.97
2023-05-08T04:31:05.890Z,101707.41
2023-05-08T04:33:36.449Z,101710.13
2023-05-08T04:36:05.047Z,101719.97
2023-05-08T04:38:37.141Z,101718.28
2023-05-08T04:41:05.727Z,101721.84
2023-05-08T04:43:33.985Z,101716.53
2023-05-08T04:46:02.373Z,101712.09
2023-05-08T04:48:32.766Z,101715.63
2023-05-08T04:51:04.339Z,101714.69
2023-05-08T04:53:33.290Z,101719.16
2023-05-08T04:56:01.664Z,101720.00
2023-05-08T04:58:29.950Z,101718.16
2023-05-08T05:00:58.232Z,101717.28
2023-05-08T05:03:26.482Z,101722.69
2023-05-08T05:06:02.163Z,101724.47
2023-05-08T05:08:30.394Z,101717.56
2023-05-08T05:10:58.591Z,101720.34
2023-05-08T05:13:26.905Z,101708.00
2023-05-08T05:15:55.992Z,101712.47
2023-05-08T05:18:24.244Z,101707.25
2023-05-08T05:20:52.440Z,101701.03
2023-05-08T05:23:20.658Z,101701.03
2023-05-08T05:25:49.450Z,101706.41
2023-05-08T05:28:17.688Z,101698.41
2023-05-08T05:30:49.445Z,101706.44
2023-05-08T05:33:17.664Z,101715.31
2023-05-08T05:35:45.935Z,101704.72
2023-05-08T05:38:14.129Z,101705.63
2023-05-08T05:40:42.415Z,101702.16
2023-05-08T05:43:10.818Z,101701.38
2023-05-08T05:45:39.895Z,101704.94
2023-05-08T05:48:08.685Z,101693.53
2023-05-08T05:50:38.713Z,101683.78
2023-05-08T05:53:07.095Z,101687.34
2023-05-08T05:55:36.442Z,101681.16
2023-05-08T05:58:04.741Z,101681.19
2023-05-08T06:00:32.936Z,101680.34
2023-05-08T06:03:01.311Z,101680.44
2023-05-08T06:05:29.687Z,101686.75
2023-05-08T06:07:58.099Z,101677.13
2023-05-08T06:10:26.677Z,101680.78
2023-05-08T06:12:55.520Z,101680.84
2023-05-08T06:15:24.288Z,101682.63
2023-05-08T06:17:53.632Z,101693.31
2023-05-08T06:20:22.548Z,101694.22
2023-05-08T06:22:51.757Z,101685.44
2023-05-08T06:25:20.337Z,101697.06
2023-05-08T06:27:49.065Z,101693.59
2023-05-08T06:30:17.323Z,101702.53
2023-05-08T06:32:45.623Z,101706.94
2023-05-08T06:35:14.241Z,101707.84
2023-05-08T06:37:42.709Z,101703.41
2023-05-08T06:40:12.886Z,101701.69
2023-05-08T06:42:41.936Z,101706.06
2023-05-08T06:45:11.380Z,101714.00
2023-05-08T06:47:40.109Z,101712.22
2023-05-08T06:50:08.935Z,101713.03
2023-05-08T06:52:37.266Z,101721.91
2023-05-08T06:55:06.069Z,101716.56
2023-05-08T06:57:34.285Z,101715.63
2023-05-08T07:00:02.509Z,101719.22
2023-05-08T07:02:30.752Z,101711.19
2023-05-08T07:04:59.135Z,101709.41
2023-05-08T07:07:27.647Z,101715.63
2023-05-08T07:09:55.852Z,101715.72
2023-05-08T07:12:24.052Z,101718.47
2023-05-08T07:14:52.299Z,101707.88
2023-05-08T07:17:20.582Z,101710.56
2023-05-08T07:19:52.239Z,101706.13
2023-05-08T07:22:20.543Z,101708.00
2023-05-08T07:24:49.137Z,101710.75
2023-05-08T07:27:17.600Z,101710.03
2023-05-08T07:29:45.819Z,101714.66
2023-05-08T07:32:14.145Z,101710.28
2023-05-08T07:34:42.759Z,101721.88
2023-05-08T07:37:13.704Z,101704.31
2023-05-08T07:39:42.003Z,101712.31
2023-05-08T07:42:10.203Z,101702.56
2023-05-08T07:44:50.973Z,101700.84
2023-05-08T07:47:23.040Z,101700.94
2023-05-08T07:49:51.245Z,101706.25
2023-05-08T07:52:19.465Z,101703.66
2023-05-08T07:54:48.117Z,101702.78
2023-05-08T07:57:16.526Z,101690.41
2023-05-08T07:59:44.770Z,101690.50
2023-05-08T08:02:12.962Z,101694.16
2023-05-08T08:04:41.604Z,101691.63
2023-05-08T08:07:09.849Z,101692.59
2023-05-08T08:09:38.060Z,101692.72
2023-05-08T08:12:06.510Z,101690.13
2023-05-08T08:14:35.101Z,101682.19
2023-05-08T08:17:03.322Z,101689.34
2023-05-08T08:19:31.516Z,101690.34
2023-05-08T08:21:59.676Z,101678.84
2023-05-08T08:24:30.066Z,101685.06
2023-05-08T08:26:58.283Z,101681.56
2023-05-08T08:29:26.787Z,101686.03
2023-05-08T08:31:55.137Z,101692.25
2023-05-08T08:34:23.518Z,101691.44
2023-05-08T08:36:51.775Z,101696.91
2023-05-08T08:39:19.950Z,101694.34
2023-05-08T08:41:48.719Z,101685.53
2023-05-08T08:44:16.939Z,101690.00
2023-05-08T08:46:54.925Z,101690.00
2023-05-08T08:49:33.033Z,101693.59
2023-05-08T08:52:04.569Z,101681.25
2023-05-08T08:54:38.331Z,101684.75
2023-05-08T08:57:08.979Z,101678.59
2023-05-08T08:59:40.328Z,101682.16
2023-05-08T09:02:15.920Z,101669.78
2023-05-08T09:04:44.579Z,101674.19
2023-05-08T09:07:13.298Z,101673.34
2023-05-08T09:09:42.581Z,101669.84
2023-05-08T09:12:11.253Z,101673.41
2023-05-08T09:14:39.521Z,101665.53
2023-05-08T09:17:07.685Z,101666.44
2023-05-08T09:19:36.656Z,101665.59
2023-05-08T09:22:07.660Z,101663.03
2023-05-08T09:25:01.779Z,101656.91
2023-05-08T09:27:31.374Z,101656.88
2023-05-08T09:30:13.330Z,101663.97
2023-05-08T09:32:46.572Z,101664.88
2023-05-08T09:35:15.369Z,101659.50
2023-05-08T09:37:44.553Z,101655.94
2023-05-08T09:40:16.980Z,101662.13
2023-05-08T09:42:45.500Z,101665.63
2023-05-08T09:45:31.999Z,101663.88
2023-05-08T09:48:00.732Z,101671.84
2023-05-08T09:50:29.080Z,101666.53
2023-05-08T09:52:57.329Z,101664.88
2023-05-08T09:55:25.804Z,101656.91
2023-05-08T09:58:00.024Z,101656.03
2023-05-08T10:00:30.277Z,101644.59
2023-05-08T10:03:01.073Z,101653.47
2023-05-08T10:05:33.212Z,101657.88
2023-05-08T10:08:20.708Z,101660.59
2023-05-08T10:10:49.434Z,101665.06
2023-05-08T10:13:17.792Z,101661.53
2023-05-08T10:15:46.702Z,101660.66
2023-05-08T10:18:18.833Z,101655.44
2023-05-08T10:20:49.472Z,101658.97
2023-05-08T10:23:18.453Z,101656.31
2023-05-08T10:25:49.031Z,101664.28
2023-05-08T10:28:25.433Z,101658.16
2023-05-08T10:30:56.353Z,101656.47
2023-05-08T10:33:31.921Z,101662.72
2023-05-08T10:36:01.098Z,101653.88
2023-05-08T10:38:29.494Z,101664.50
2023-05-08T10:41:02.049Z,101664.59
2023-05-08T10:43:34.826Z,101657.59
2023-05-08T10:46:10.822Z,101665.59
2023-05-08T10:48:57.478Z,101677.13
2023-05-08T10:51:28.283Z,101672.75
2023-05-08T10:54:27.483Z,101678.09
2023-05-08T10:57:11.802Z,101678.94
2023-05-08T10:59:40.244Z,101680.78
2023-05-08T11:02:09.845Z,101681.72
2023-05-08T11:04:39.105Z,101673.78
2023-05-08T11:07:07.813Z,101669.44
2023-05-08T11:09:44.926Z,101669.44
2023-05-08T11:12:26.766Z,101667.69
2023-05-08T11:15:07.331Z,101668.56
2023-05-08T11:17:35.980Z,101661.50
2023-05-08T11:20:06.741Z,101665.03
2023-05-08T11:22:36.226Z,101670.31
2023-05-08T11:25:10.849Z,101671.22
2023-05-08T11:27:38.707Z,101672.09
2023-05-08T11:30:26.710Z,101671.25
2023-05-08T11:33:07.816Z,101676.56
2023-05-08T11:35:49.362Z,101675.66
2023-05-08T11:38:24.668Z,101681.81
2023-05-08T11:41:12.595Z,101681.88
2023-05-08T11:44:11.654Z,101687.16
2023-05-08T11:46:49.219Z,101686.38
2023-05-08T11:49:19.651Z,101687.25
2023-05-08T11:51:55.967Z,101689.06
2023-05-08T11:54:25.492Z,101692.59
2023-05-08T11:56:58.346Z,101684.63
2023-05-08T11:59:26.603Z,101683.72
2023-05-08T12:04:26.020Z,101677.50
2023-05-08T12:06:59.738Z,101681.94
2023-05-08T12:09:28.204Z,101681.97
2023-05-08T12:12:00.020Z,101673.16
2023-05-08T12:14:28.244Z,101682.88
2023-05-08T12:16:56.688Z,101674.00
2023-05-08T12:19:24.984Z,101673.13
2023-05-08T12:21:53.427Z,101676.66
2023-05-08T12:24:25.179Z,101681.91
2023-05-08T12:26:57.268Z,101682.72
2023-05-08T12:29:28.360Z,101680.00
2023-05-08T12:31:57.168Z,101672.00
2023-05-08T12:34:25.418Z,101671.06
2023-05-08T12:37:04.187Z,101666.59
2023-05-08T12:39:37.638Z,101666.50
2023-05-08T12:42:06.082Z,101663.81
2023-05-08T12:44:34.281Z,101660.22
2023-05-08T12:47:02.541Z,101661.00
2023-05-08T12:49:32.489Z,101665.34
2023-05-08T12:52:13.519Z,101660.00
2023-05-08T12:54:48.002Z,101659.91
2023-05-08T12:57:18.899Z,101652.81
2023-05-08T12:59:48.131Z,101661.56
2023-05-08T13:02:24.804Z,101670.34
2023-05-08T13:04:56.914Z,101670.28
2023-05-08T13:07:25.416Z,101668.53
2023-05-08T13:10:06.349Z,101672.88
2023-05-08T13:12:35.587Z,101676.38
2023-05-08T13:15:05.617Z,101674.59
2023-05-08T13:17:33.872Z,101680.72
2023-05-08T13:20:06.050Z,101677.09
2023-05-08T13:22:34.541Z,101686.81
2023-05-08T13:25:02.917Z,101677.94
2023-05-08T13:27:31.219Z,101691.16
2023-05-08T13:29:59.419Z,101693.75
2023-05-08T13:32:27.700Z,101693.81
2023-05-08T13:34:58.834Z,101701.75
2023-05-08T13:37:29.073Z,101701.75
2023-05-08T13:39:57.314Z,101711.44
2023-05-08T13:42:25.516Z,101707.84
2023-05-08T13:44:53.712Z,101706.91
2023-05-08T13:47:22.051Z,101716.56
2023-05-08T13:49:51.140Z,101706.78
2023-05-08T13:52:19.407Z,101712.06
2023-05-08T13:54:47.641Z,101704.03
2023-05-08T13:57:16.024Z,101701.31
2023-05-08T13:59:44.414Z,101700.38
2023-05-08T14:02:12.743Z,101697.75
2023-05-08T14:04:41.692Z,101698.59
2023-05-08T14:07:09.938Z,101698.56
2023-05-08T14:09:38.216Z,101701.19
2023-05-08T14:12:06.718Z,101702.06
2023-05-08T14:14:35.001Z,101701.19
2023-05-08T14:17:03.627Z,101703.84
2023-05-08T14:19:32.198Z,101701.16
2023-05-08T14:22:00.506Z,101710.81
2023-05-08T14:24:28.735Z,101716.03
2023-05-08T14:26:57.009Z,101716.88
2023-05-08T14:29:25.630Z,101719.41
2023-05-08T14:31:53.945Z,101725.47
2023-05-08T14:34:22.298Z,101730.56
2023-05-08T14:36:50.525Z,101730.50
2023-05-08T14:39:18.813Z,101726.88
2023-05-08T14:41:59.719Z,101725.88
2023-05-08T14:44:35.550Z,101732.91
2023-05-08T14:47:03.933Z,101737.25
2023-05-08T14:49:38.143Z,101734.47
2023-05-08T14:52:07.791Z,101724.63
2023-05-08T14:54:36.386Z,101710.53
2023-05-08T14:57:04.844Z,101710.56
2023-05-08T14:59:33.107Z,101710.50
2023-05-08T15:02:01.570Z,101709.50
2023-05-08T15:04:29.999Z,101715.53
2023-05-08T15:06:58.195Z,101725.88
2023-05-08T15:09:26.425Z,101731.88
2023-05-08T15:11:54.664Z,101733.63
2023-05-08T15:14:22.872Z,101730.09
2023-05-08T15:16:51.418Z,101731.66
2023-05-08T15:19:19.714Z,101730.47
2023-05-08T15:21:48.237Z,101736.75
2023-05-08T15:24:16.510Z,101741.28
2023-05-08T15:26:44.788Z,101745.75
2023-05-08T15:29:13.088Z,101746.63
2023-05-08T15:31:41.387Z,101749.22
2023-05-08T15:34:09.780Z,101748.16
2023-05-08T15:36:38.101Z,101743.50
2023-05-08T15:39:06.437Z,101749.38
2023-05-08T15:41:35.080Z,101750.78
2023-05-08T15:44:03.828Z,101751.41
2023-05-08T15:46:31.997Z,101753.75
2023-05-08T15:49:02.556Z,101750.66
2023-05-08T15:51:31.211Z,101757.34
2023-05-08T15:53:59.597Z,101753.88
2023-05-08T15:56:27.858Z,101756.53
2023-05-08T15:58:56.379Z,101760.72
2023-05-08T16:01:24.656Z,101747.13
2023-05-08T16:03:52.911Z,101749.56
2023-05-08T16:06:21.164Z,101743.59
2023-05-08T16:08:49.549Z,101746.72
2023-05-08T16:11:18.019Z,101739.06
2023-05-08T16:13:46.246Z,101749.63
2023-05-08T16:16:14.827Z,101743.81
2023-05-08T16:18:43.018Z,101741.31
2023-05-08T16:21:12.238Z,101736.97
2023-05-08T16:23:40.553Z,101748.38
2023-05-08T16:26:08.804Z,101747.69
2023-05-08T16:28:36.986Z,101740.94
2023-05-08T16:31:06.890Z,101743.38
2023-05-08T16:33:35.152Z,101741.78
2023-05-08T16:36:03.373Z,101740.16
2023-05-08T16:38:31.591Z,101734.66
2023-05-08T16:41:03.874Z,101735.53
2023-05-08T16:43:32.437Z,101738.28
2023-05-08T16:46:00.773Z,101740.00
2023-05-08T16:48:29.800Z,101738.19
2023-05-08T16:50:58.047Z,101746.06
2023-05-08T16:53:29.027Z,101750.50
2023-05-08T16:55:57.358Z,101744.28
2023-05-08T16:58:27.888Z,101748.38
2023-05-08T17:00:56.086Z,101755.94
2023-05-08T17:03:24.452Z,101751.22
2023-05-08T17:05:52.977Z,101750.06
2023-05-08T17:08:21.246Z,101747.81
2023-05-08T17:10:49.840Z,101755.38
2023-05-08T17:13:18.126Z,101749.72
2023-05-08T17:15:46.558Z,101743.53
2023-05-08T17:18:14.985Z,101753.69
2023-05-08T17:20:43.270Z,101746.22
2023-05-08T17:23:11.801Z,101745.41
2023-05-08T17:25:40.094Z,101729.84
2023-05-08T17:28:08.297Z,101740.94
2023-05-08T17:30:36.539Z,101744.03
2023-05-08T17:33:04.963Z,101741.63
2023-05-08T17:35:33.196Z,101745.16
2023-05-08T17:38:01.684Z,101756.84
2023-05-08T17:40:29.930Z,101764.38
2023-05-08T17:42:59.998Z,101757.69
2023-05-08T17:45:28.306Z,101761.66
2023-05-08T17:47:56.545Z,101763.06
2023-05-08T17:50:24.911Z,101758.25
2023-05-08T17:52:53.133Z,101753.94
2023-05-08T17:55:21.384Z,101753.16
2023-05-08T17:57:49.817Z,101755.94
2023-05-08T18:00:18.533Z,101767.53
2023-05-08T18:02:46.920Z,101765.72
2023-05-08T18:05:16.519Z,101766.59
2023-05-08T18:07:44.690Z,101763.16
2023-05-08T18:10:13.183Z,101763.16
2023-05-08T18:12:41.806Z,101763.22
2023-05-08T18:15:10.488Z,101770.47
2023-05-08T18:17:38.718Z,101776.06
2023-05-08T18:20:08.680Z,101774.81
2023-05-08T18:22:37.210Z,101781.41
2023-05-08T18:25:06.078Z,101773.72
2023-05-08T18:27:37.249Z,101773.78
2023-05-08T18:30:06.072Z,101774.66
2023-05-08T18:32:34.467Z,101774.56
2023-05-08T18:35:02.692Z,101775.38
2023-05-08T18:37:30.867Z,101777.94
2023-05-08T18:39:59.060Z,101780.28
2023-05-08T18:42:27.316Z,101769.31
2023-05-08T18:44:56.790Z,101773.78
2023-05-08T18:47:25.039Z,101770.50
2023-05-08T18:49:53.463Z,101766.09
2023-05-08T18:52:21.695Z,101766.00
2023-05-08T18:54:49.929Z,101765.47
2023-05-08T18:57:18.292Z,101766.47
2023-05-08T18:59:46.544Z,101765.31
2023-05-08T19:02:15.394Z,101760.47
2023-05-08T19:04:43.651Z,101769.63
2023-05-08T19:07:11.858Z,101757.28
2023-05-08T19:09:40.059Z,101759.25
2023-05-08T19:12:08.318Z,101756.72
2023-05-08T19:14:36.549Z,101749.81
2023-05-08T19:17:04.833Z,101756.66
2023-05-08T19:19:33.125Z,101737.53
2023-05-08T19:22:01.359Z,101740.91
2023-05-08T19:24:30.833Z,101736.41
2023-05-08T19:26:59.920Z,101739.09
2023-05-08T19:29:28.272Z,101738.28
2023-05-08T19:31:57.452Z,101738.22
2023-05-08T19:34:25.815Z,101731.66
2023-05-08T19:36:54.035Z,101732.59
2023-05-08T19:39:22.300Z,101738.13
2023-05-08T19:41:50.539Z,101734.25
2023-05-08T19:44:18.716Z,101727.47
2023-05-08T19:46:47.418Z,101725.56
2023-05-08T19:49:16.953Z,101718.16
2023-05-08T19:51:45.195Z,101722.09
2023-05-08T19:54:13.375Z,101720.00
2023-05-08T19:56:41.643Z,101714.25
2023-05-08T19:59:09.971Z,101723.19
2023-05-08T20:01:38.541Z,101709.28
2023-05-08T20:04:06.975Z,101701.41
2023-05-08T20:06:35.339Z,101709.84
2023-05-08T20:09:03.581Z,101699.94
2023-05-08T20:11:31.845Z,101712.75
2023-05-08T20:14:00.114Z,101695.91
2023-05-08T20:16:29.453Z,101697.09
2023-05-08T20:18:57.838Z,101697.44
2023-05-08T20:21:26.493Z,101693.88
2023-05-08T20:23:54.692Z,101691.16
2023-05-08T20:26:22.973Z,101682.06
2023-05-08T20:28:51.447Z,101677.22
2023-05-08T20:31:19.753Z,101685.16
2023-05-08T20:33:48.646Z,101684.94
2023-05-08T20:36:16.898Z,101678.41
2023-05-08T20:38:45.340Z,101675.91
2023-05-08T20:41:13.758Z,101690.84
2023-05-08T20:43:41.983Z,101690.75
2023-05-08T20:46:10.915Z,101674.13
2023-05-08T20:48:39.365Z,101678.84
2023-05-08T20:51:07.669Z,101671.25
2023-05-08T20:53:35.906Z,101668.31
2023-05-08T20:56:05.671Z,101674.75
2023-05-08T20:58:33.982Z,101675.22
2023-05-08T21:01:02.301Z,101673.72
2023-05-08T21:03:30.590Z,101665.97
2023-05-08T21:05:58.820Z,101672.28
2023-05-08T21:08:30.190Z,101667.88
2023-05-08T21:10:58.428Z,101655.72
2023-05-08T21:13:27.578Z,101664.94
2023-05-08T21:15:55.775Z,101657.34
2023-05-08T21:18:24.099Z,101659.50
2023-05-08T21:20:52.305Z,101657.59
2023-05-08T21:23:21.390Z,101656.25
2023-05-08T21:25:51.501Z,101649.53
2023-05-08T21:28:19.669Z,101648.41
2023-05-08T21:30:48.525Z,101648.19
2023-05-08T21:33:16.820Z,101651.75
2023-05-08T21:35:45.139Z,101650.84
2023-05-08T21:38:13.505Z,101636.56
2023-05-08T21:40:41.778Z,101641.44
2023-05-08T21:43:10.014Z,101633.47
2023-05-08T21:45:38.326Z,101637.84
2023-05-08T21:48:07.037Z,101628.88
2023-05-08T21:50:35.376Z,101624.47
2023-05-08T21:53:04.063Z,101625.53
2023-05-08T21:55:32.635Z,101618.41
2023-05-08T21:58:00.872Z,101615.94
2023-05-08T22:00:29.384Z,101620.81
2023-05-08T22:02:57.669Z,101620.97
2023-05-08T22:05:26.179Z,101614.22
2023-05-08T22:07:54.786Z,101609.03
2023-05-08T22:10:23.411Z,101614.38
2023-05-08T22:12:51.667Z,101606.00
2023-05-08T22:15:29.815Z,101606.53
2023-05-08T22:18:00.141Z,101595.16
2023-05-08T22:20:28.401Z,101597.09
2023-05-08T22:22:56.796Z,101594.66
2023-05-08T22:25:26.109Z,101587.97
2023-05-08T22:27:54.384Z,101588.78
2023-05-08T22:30:22.795Z,101587.25
2023-05-08T22:32:56.707Z,101580.13
2023-05-08T22:35:26.798Z,101583.09
2023-05-08T22:37:56.139Z,101571.09
2023-05-08T22:40:25.048Z,101572.13
2023-05-08T22:42:54.906Z,101567.59
2023-05-08T22:45:23.794Z,101574.66
2023-05-08T22:47:52.295Z,101559.19
2023-05-08T22:50:20.822Z,101567.16
2023-05-08T22:52:49.457Z,101561.97
2023-05-08T22:55:17.999Z,101573.13
2023-05-08T22:57:46.709Z,101568.94
2023-05-08T23:00:17.051Z,101559.78
2023-05-08T23:02:45.865Z,101557.75
2023-05-08T23:05:14.847Z,101557.06
2023-05-08T23:07:43.294Z,101565.44
2023-05-08T23:10:11.968Z,101555.72
2023-05-08T23:12:40.190Z,101556.25
2023-05-08T23:15:09.365Z,101552.75
2023-05-08T23:17:37.731Z,101551.50
2023-05-08T23:20:06.719Z,101560.88
2023-05-08T23:22:35.067Z,101559.88
2023-05-08T23:25:15.130Z,101561.03
2023-05-08T23:27:43.535Z,101558.78
2023-05-08T23:30:13.975Z,101563.19
2023-05-08T23:32:42.433Z,101554.91
2023-05-08T23:35:11.635Z,101547.88
2023-05-08T23:37:40.015Z,101543.94
2023-05-08T23:40:08.938Z,101542.31
2023-05-08T23:42:38.007Z,101546.44
2023-05-08T23:45:07.265Z,101540.28
2023-05-08T23:47:35.584Z,101539.38
2023-05-08T23:50:03.859Z,101542.22
2023-05-08T23:52:32.036Z,101546.09
2023-05-08T23:55:00.233Z,101543.31
2023-05-08T23:57:28.464Z,101538.19
2023-05-08T23:59:56.688Z,101554.66
